Terminal Aerodrome Forecast
Issued by NWS

Home | Current Version | Previous Version | Text Only | Print | Product List | Glossary On
Versions: 1 2 3 4 5 6 7 8 9 10 11 12 13 14 15 16
000
FTUS43 KLSX 220520
TAFCPS
TAF
KCPS 220520Z 2206/2306 01008KT P6SM SCT200
     FM220900 05009KT P6SM SCT200
     FM230200 09008KT P6SM BKN130=

USA.gov is the U.S. government's official web portal to all federal, state and local government web resources and services.